sensor_id;sensor_type;location;lat;lon;timestamp;temperature;humidity
74511;DHT22;62991;50.040;18.400;2023-07-20T00:02:33;19.50;66.10
74511;DHT22;62991;50.040;18.400;2023-07-20T00:05:34;19.60;66.10
74511;DHT22;62991;50.040;18.400;2023-07-20T00:08:35;19.70;66.30
74511;DHT22;62991;50.040;18.400;2023-07-20T00:11:36;19.80;65.40
74511;DHT22;62991;50.040;18.400;2023-07-20T00:14:40;19.90;64.80
74511;DHT22;62991;50.040;18.400;2023-07-20T00:17:40;20.10;66.10
74511;DHT22;62991;50.040;18.400;2023-07-20T00:20:42;20.20;66.20
74511;DHT22;62991;50.040;18.400;2023-07-20T00:23:42;20.10;67.20
74511;DHT22;62991;50.040;18.400;2023-07-20T00:26:44;19.90;66.30
74511;DHT22;62991;50.040;18.400;2023-07-20T00:29:44;20.10;65.70
74511;DHT22;62991;50.040;18.400;2023-07-20T00:32:45;20.10;65.80
74511;DHT22;62991;50.040;18.400;2023-07-20T00:35:45;20.10;66.30
74511;DHT22;62991;50.040;18.400;2023-07-20T00:38:46;20.10;66.40
74511;DHT22;62991;50.040;18.400;2023-07-20T00:41:47;19.80;67.30
74511;DHT22;62991;50.040;18.400;2023-07-20T00:44:48;19.70;67.40
74511;DHT22;62991;50.040;18.400;2023-07-20T00:47:48;19.60;67.80
74511;DHT22;62991;50.040;18.400;2023-07-20T00:50:49;19.50;67.00
74511;DHT22;62991;50.040;18.400;2023-07-20T00:53:51;19.50;66.10
74511;DHT22;62991;50.040;18.400;2023-07-20T00:56:53;19.50;66.50
74511;DHT22;62991;50.040;18.400;2023-07-20T00:59:54;19.40;66.60
74511;DHT22;62991;50.040;18.400;2023-07-20T01:02:55;19.40;66.60
74511;DHT22;62991;50.040;18.400;2023-07-20T01:07:00;19.40;66.70
74511;DHT22;62991;50.040;18.400;2023-07-20T01:09:48;19.30;66.70
74511;DHT22;62991;50.040;18.400;2023-07-20T01:12:53;19.20;66.40
74511;DHT22;62991;50.040;18.400;2023-07-20T01:16:01;19.10;66.50
74511;DHT22;62991;50.040;18.400;2023-07-20T01:19:02;19.10;66.20
74511;DHT22;62991;50.040;18.400;2023-07-20T01:32:09;18.80;66.60
74511;DHT22;62991;50.040;18.400;2023-07-20T01:35:12;18.70;66.30
74511;DHT22;62991;50.040;18.400;2023-07-20T01:38:15;18.70;65.70
74511;DHT22;62991;50.040;18.400;2023-07-20T01:41:16;18.50;66.10
74511;DHT22;62991;50.040;18.400;2023-07-20T01:44:17;18.50;65.70
74511;DHT22;62991;50.040;18.400;2023-07-20T01:47:18;18.40;66.30
74511;DHT22;62991;50.040;18.400;2023-07-20T01:50:19;18.40;66.90
74511;DHT22;62991;50.040;18.400;2023-07-20T01:53:20;18.20;67.90
74511;DHT22;62991;50.040;18.400;2023-07-20T01:56:21;17.90;69.40
74511;DHT22;62991;50.040;18.400;2023-07-20T01:59:21;17.80;70.00
74511;DHT22;62991;50.040;18.400;2023-07-20T02:02:26;17.70;70.20
74511;DHT22;62991;50.040;18.400;2023-07-20T02:05:27;17.80;70.40
74511;DHT22;62991;50.040;18.400;2023-07-20T02:08:27;17.80;70.40
74511;DHT22;62991;50.040;18.400;2023-07-20T02:11:28;17.70;70.50
74511;DHT22;62991;50.040;18.400;2023-07-20T02:14:29;17.70;71.00
74511;DHT22;62991;50.040;18.400;2023-07-20T02:17:29;17.50;71.20
74511;DHT22;62991;50.040;18.400;2023-07-20T02:20:30;17.50;71.50
74511;DHT22;62991;50.040;18.400;2023-07-20T02:23:31;17.40;71.40
74511;DHT22;62991;50.040;18.400;2023-07-20T02:26:32;17.40;71.40
74511;DHT22;62991;50.040;18.400;2023-07-20T02:29:32;17.30;71.60
74511;DHT22;62991;50.040;18.400;2023-07-20T02:32:34;17.20;71.60
74511;DHT22;62991;50.040;18.400;2023-07-20T02:35:35;17.10;71.80
74511;DHT22;62991;50.040;18.400;2023-07-20T02:38:35;17.10;71.60
74511;DHT22;62991;50.040;18.400;2023-07-20T02:41:36;17.00;71.80
74511;DHT22;62991;50.040;18.400;2023-07-20T02:44:37;16.90;72.30
74511;DHT22;62991;50.040;18.400;2023-07-20T02:47:37;16.90;72.40
74511;DHT22;62991;50.040;18.400;2023-07-20T02:50:38;16.90;72.40
74511;DHT22;62991;50.040;18.400;2023-07-20T02:53:39;16.90;72.50
74511;DHT22;62991;50.040;18.400;2023-07-20T02:56:39;16.90;72.40
74511;DHT22;62991;50.040;18.400;2023-07-20T02:59:40;16.90;72.60
74511;DHT22;62991;50.040;18.400;2023-07-20T03:02:41;16.90;72.60
74511;DHT22;62991;50.040;18.400;2023-07-20T03:05:42;16.90;72.70
74511;DHT22;62991;50.040;18.400;2023-07-20T03:08:43;16.90;72.90
74511;DHT22;62991;50.040;18.400;2023-07-20T03:11:52;16.80;73.00
74511;DHT22;62991;50.040;18.400;2023-07-20T03:14:53;16.80;73.00
74511;DHT22;62991;50.040;18.400;2023-07-20T03:17:54;16.80;73.10
74511;DHT22;62991;50.040;18.400;2023-07-20T03:20:55;16.80;73.10
74511;DHT22;62991;50.040;18.400;2023-07-20T03:23:55;16.80;73.40
74511;DHT22;62991;50.040;18.400;2023-07-20T03:26:56;16.90;73.30
74511;DHT22;62991;50.040;18.400;2023-07-20T03:29:57;16.90;73.00
74511;DHT22;62991;50.040;18.400;2023-07-20T03:32:57;16.90;72.90
74511;DHT22;62991;50.040;18.400;2023-07-20T03:35:58;16.80;73.00
74511;DHT22;62991;50.040;18.400;2023-07-20T03:38:59;16.90;73.00
74511;DHT22;62991;50.040;18.400;2023-07-20T03:41:59;17.00;72.70
74511;DHT22;62991;50.040;18.400;2023-07-20T03:45:00;17.10;72.50
74511;DHT22;62991;50.040;18.400;2023-07-20T03:48:01;17.30;72.20
74511;DHT22;62991;50.040;18.400;2023-07-20T03:51:01;17.30;71.70
74511;DHT22;62991;50.040;18.400;2023-07-20T03:54:02;17.40;72.10
74511;DHT22;62991;50.040;18.400;2023-07-20T03:57:03;17.80;71.10
74511;DHT22;62991;50.040;18.400;2023-07-20T04:00:04;18.10;69.60
74511;DHT22;62991;50.040;18.400;2023-07-20T04:03:08;18.40;69.20
74511;DHT22;62991;50.040;18.400;2023-07-20T04:06:09;18.60;68.50
74511;DHT22;62991;50.040;18.400;2023-07-20T04:09:10;18.80;68.30
74511;DHT22;62991;50.040;18.400;2023-07-20T04:12:11;19.00;67.90
74511;DHT22;62991;50.040;18.400;2023-07-20T04:15:12;19.10;67.10
74511;DHT22;62991;50.040;18.400;2023-07-20T04:18:13;19.20;67.30
74511;DHT22;62991;50.040;18.400;2023-07-20T04:21:14;19.30;66.90
74511;DHT22;62991;50.040;18.400;2023-07-20T04:24:15;19.30;66.20
74511;DHT22;62991;50.040;18.400;2023-07-20T04:27:15;19.40;66.40
74511;DHT22;62991;50.040;18.400;2023-07-20T04:30:17;19.60;66.50
74511;DHT22;62991;50.040;18.400;2023-07-20T04:33:20;19.70;66.10
74511;DHT22;62991;50.040;18.400;2023-07-20T04:36:21;19.90;64.70
74511;DHT22;62991;50.040;18.400;2023-07-20T04:39:21;19.80;64.60
74511;DHT22;62991;50.040;18.400;2023-07-20T04:42:22;19.80;65.40
74511;DHT22;62991;50.040;18.400;2023-07-20T04:45:23;19.70;66.20
74511;DHT22;62991;50.040;18.400;2023-07-20T04:48:24;19.80;65.30
74511;DHT22;62991;50.040;18.400;2023-07-20T04:51:25;19.80;65.30
74511;DHT22;62991;50.040;18.400;2023-07-20T04:54:26;19.60;65.20
74511;DHT22;62991;50.040;18.400;2023-07-20T04:57:27;19.40;66.70
74511;DHT22;62991;50.040;18.400;2023-07-20T05:00:28;19.60;66.30
74511;DHT22;62991;50.040;18.400;2023-07-20T05:03:28;19.40;66.40
74511;DHT22;62991;50.040;18.400;2023-07-20T05:06:29;19.30;66.80
74511;DHT22;62991;50.040;18.400;2023-07-20T05:09:30;19.30;67.20
74511;DHT22;62991;50.040;18.400;2023-07-20T05:12:31;19.20;67.50
74511;DHT22;62991;50.040;18.400;2023-07-20T05:15:33;19.20;67.70
74511;DHT22;62991;50.040;18.400;2023-07-20T05:18:35;18.80;68.30
74511;DHT22;62991;50.040;18.400;2023-07-20T05:21:35;19.00;68.00
74511;DHT22;62991;50.040;18.400;2023-07-20T05:24:36;18.90;68.40
74511;DHT22;62991;50.040;18.400;2023-07-20T05:27:38;18.50;69.30
74511;DHT22;62991;50.040;18.400;2023-07-20T05:30:40;18.40;70.40
74511;DHT22;62991;50.040;18.400;2023-07-20T05:33:40;18.60;69.40
74511;DHT22;62991;50.040;18.400;2023-07-20T05:37:10;18.60;69.40
74511;DHT22;62991;50.040;18.400;2023-07-20T05:40:11;18.80;69.90
74511;DHT22;62991;50.040;18.400;2023-07-20T05:43:12;18.70;68.80
74511;DHT22;62991;50.040;18.400;2023-07-20T05:46:13;18.90;67.40
74511;DHT22;62991;50.040;18.400;2023-07-20T05:49:14;18.70;67.40
74511;DHT22;62991;50.040;18.400;2023-07-20T05:52:15;18.70;68.90
74511;DHT22;62991;50.040;18.400;2023-07-20T05:55:15;18.70;67.40
74511;DHT22;62991;50.040;18.400;2023-07-20T05:58:16;18.90;68.00
74511;DHT22;62991;50.040;18.400;2023-07-20T06:01:17;19.00;67.00
74511;DHT22;62991;50.040;18.400;2023-07-20T06:04:19;18.90;67.70
74511;DHT22;62991;50.040;18.400;2023-07-20T06:07:20;19.00;67.10
74511;DHT22;62991;50.040;18.400;2023-07-20T06:10:20;19.20;66.90
74511;DHT22;62991;50.040;18.400;2023-07-20T06:13:21;19.20;66.70
74511;DHT22;62991;50.040;18.400;2023-07-20T06:16:22;19.50;66.20
74511;DHT22;62991;50.040;18.400;2023-07-20T06:19:23;19.50;65.80
74511;DHT22;62991;50.040;18.400;2023-07-20T06:22:24;19.40;66.60
74511;DHT22;62991;50.040;18.400;2023-07-20T06:25:24;19.60;66.30
74511;DHT22;62991;50.040;18.400;2023-07-20T06:28:25;19.60;64.60
74511;DHT22;62991;50.040;18.400;2023-07-20T06:31:26;19.50;65.60
74511;DHT22;62991;50.040;18.400;2023-07-20T06:34:26;19.50;66.20
74511;DHT22;62991;50.040;18.400;2023-07-20T06:37:27;19.50;66.20
74511;DHT22;62991;50.040;18.400;2023-07-20T06:40:28;19.60;65.30
74511;DHT22;62991;50.040;18.400;2023-07-20T06:43:28;19.40;65.60
74511;DHT22;62991;50.040;18.400;2023-07-20T06:46:29;19.20;66.70
74511;DHT22;62991;50.040;18.400;2023-07-20T06:49:30;19.30;66.40
74511;DHT22;62991;50.040;18.400;2023-07-20T06:52:30;19.40;66.60
74511;DHT22;62991;50.040;18.400;2023-07-20T06:55:31;19.50;66.90
74511;DHT22;62991;50.040;18.400;2023-07-20T06:58:32;19.70;67.30
74511;DHT22;62991;50.040;18.400;2023-07-20T07:01:33;19.90;65.30
74511;DHT22;62991;50.040;18.400;2023-07-20T07:04:34;19.90;65.50
74511;DHT22;62991;50.040;18.400;2023-07-20T07:07:35;20.20;65.60
74511;DHT22;62991;50.040;18.400;2023-07-20T07:10:36;20.30;63.70
74511;DHT22;62991;50.040;18.400;2023-07-20T07:13:37;20.30;64.90
74511;DHT22;62991;50.040;18.400;2023-07-20T07:16:38;20.20;63.90
74511;DHT22;62991;50.040;18.400;2023-07-20T07:19:38;20.20;64.10
74511;DHT22;62991;50.040;18.400;2023-07-20T07:22:39;20.10;64.20
74511;DHT22;62991;50.040;18.400;2023-07-20T07:25:40;20.20;65.00
74511;DHT22;62991;50.040;18.400;2023-07-20T07:28:42;20.20;64.50
74511;DHT22;62991;50.040;18.400;2023-07-20T07:31:43;20.20;64.00
74511;DHT22;62991;50.040;18.400;2023-07-20T07:34:44;20.30;64.50
74511;DHT22;62991;50.040;18.400;2023-07-20T07:37:46;20.30;63.70
74511;DHT22;62991;50.040;18.400;2023-07-20T07:40:47;20.50;63.80
74511;DHT22;62991;50.040;18.400;2023-07-20T07:43:48;20.50;63.30
74511;DHT22;62991;50.040;18.400;2023-07-20T07:46:48;20.30;64.50
74511;DHT22;62991;50.040;18.400;2023-07-20T07:49:49;20.40;63.50
74511;DHT22;62991;50.040;18.400;2023-07-20T07:52:50;20.30;63.50
74511;DHT22;62991;50.040;18.400;2023-07-20T07:55:51;20.40;63.70
74511;DHT22;62991;50.040;18.400;2023-07-20T07:58:52;20.40;63.60
74511;DHT22;62991;50.040;18.400;2023-07-20T08:01:52;20.30;64.10
74511;DHT22;62991;50.040;18.400;2023-07-20T08:04:53;20.40;62.80
74511;DHT22;62991;50.040;18.400;2023-07-20T08:07:54;20.40;63.50
74511;DHT22;62991;50.040;18.400;2023-07-20T08:10:55;20.30;63.30
74511;DHT22;62991;50.040;18.400;2023-07-20T08:13:56;20.40;64.20
74511;DHT22;62991;50.040;18.400;2023-07-20T08:16:56;20.50;64.90
74511;DHT22;62991;50.040;18.400;2023-07-20T08:19:57;20.40;62.90
74511;DHT22;62991;50.040;18.400;2023-07-20T08:22:58;20.40;62.80
74511;DHT22;62991;50.040;18.400;2023-07-20T08:26:00;20.60;62.70
74511;DHT22;62991;50.040;18.400;2023-07-20T08:29:01;20.70;63.20
74511;DHT22;62991;50.040;18.400;2023-07-20T08:32:02;20.80;62.30
74511;DHT22;62991;50.040;18.400;2023-07-20T08:35:04;20.80;62.20
74511;DHT22;62991;50.040;18.400;2023-07-20T08:38:06;20.80;62.60
74511;DHT22;62991;50.040;18.400;2023-07-20T08:41:09;20.90;60.70
74511;DHT22;62991;50.040;18.400;2023-07-20T08:44:10;21.00;61.60
74511;DHT22;62991;50.040;18.400;2023-07-20T08:47:12;21.10;61.50
74511;DHT22;62991;50.040;18.400;2023-07-20T08:50:15;21.20;61.70
74511;DHT22;62991;50.040;18.400;2023-07-20T08:53:16;21.20;60.10
74511;DHT22;62991;50.040;18.400;2023-07-20T08:56:19;21.20;60.30
74511;DHT22;62991;50.040;18.400;2023-07-20T08:59:22;21.30;60.20
74511;DHT22;62991;50.040;18.400;2023-07-20T09:02:25;21.50;58.40
74511;DHT22;62991;50.040;18.400;2023-07-20T09:05:26;21.50;59.80
74511;DHT22;62991;50.040;18.400;2023-07-20T09:08:27;21.40;59.90
74511;DHT22;62991;50.040;18.400;2023-07-20T09:11:28;21.50;60.10
74511;DHT22;62991;50.040;18.400;2023-07-20T09:14:30;21.50;60.10
74511;DHT22;62991;50.040;18.400;2023-07-20T09:17:33;21.70;59.10
74511;DHT22;62991;50.040;18.400;2023-07-20T09:20:33;21.70;58.80
74511;DHT22;62991;50.040;18.400;2023-07-20T09:23:37;21.70;59.20
74511;DHT22;62991;50.040;18.400;2023-07-20T09:26:44;21.80;57.50
74511;DHT22;62991;50.040;18.400;2023-07-20T09:29:51;21.80;57.80
74511;DHT22;62991;50.040;18.400;2023-07-20T09:32:52;21.90;56.80
74511;DHT22;62991;50.040;18.400;2023-07-20T09:35:53;21.80;56.50
74511;DHT22;62991;50.040;18.400;2023-07-20T09:38:54;21.80;56.90
74511;DHT22;62991;50.040;18.400;2023-07-20T09:42:00;21.80;57.70
74511;DHT22;62991;50.040;18.400;2023-07-20T09:45:01;22.00;58.10
74511;DHT22;62991;50.040;18.400;2023-07-20T09:48:07;22.10;58.10
74511;DHT22;62991;50.040;18.400;2023-07-20T09:51:08;22.20;58.00
74511;DHT22;62991;50.040;18.400;2023-07-20T09:54:10;22.30;57.80
74511;DHT22;62991;50.040;18.400;2023-07-20T09:57:12;22.20;58.30
74511;DHT22;62991;50.040;18.400;2023-07-20T10:00:14;22.20;59.50
74511;DHT22;62991;50.040;18.400;2023-07-20T10:03:19;22.30;59.10
74511;DHT22;62991;50.040;18.400;2023-07-20T10:06:24;22.50;58.80
74511;DHT22;62991;50.040;18.400;2023-07-20T10:09:25;22.50;57.70
74511;DHT22;62991;50.040;18.400;2023-07-20T10:12:27;22.50;57.10
74511;DHT22;62991;50.040;18.400;2023-07-20T10:15:37;22.40;56.70
74511;DHT22;62991;50.040;18.400;2023-07-20T10:18:49;22.50;57.00
74511;DHT22;62991;50.040;18.400;2023-07-20T10:21:56;22.70;58.50
74511;DHT22;62991;50.040;18.400;2023-07-20T10:24:58;22.70;57.20
74511;DHT22;62991;50.040;18.400;2023-07-20T10:28:00;22.70;58.70
74511;DHT22;62991;50.040;18.400;2023-07-20T10:31:02;22.70;55.70
74511;DHT22;62991;50.040;18.400;2023-07-20T10:34:03;22.90;56.20
74511;DHT22;62991;50.040;18.400;2023-07-20T10:37:04;23.00;54.70
74511;DHT22;62991;50.040;18.400;2023-07-20T10:40:31;23.10;54.50
74511;DHT22;62991;50.040;18.400;2023-07-20T10:43:33;23.20;54.90
74511;DHT22;62991;50.040;18.400;2023-07-20T10:46:34;23.40;54.90
74511;DHT22;62991;50.040;18.400;2023-07-20T10:49:59;23.40;55.60
74511;DHT22;62991;50.040;18.400;2023-07-20T10:53:18;23.60;54.40
74511;DHT22;62991;50.040;18.400;2023-07-20T10:56:21;23.60;52.70
74511;DHT22;62991;50.040;18.400;2023-07-20T11:02:25;23.30;50.90
74511;DHT22;62991;50.040;18.400;2023-07-20T11:05:36;23.30;52.50
74511;DHT22;62991;50.040;18.400;2023-07-20T11:08:42;23.50;52.70
74511;DHT22;62991;50.040;18.400;2023-07-20T11:11:47;23.60;51.70
74511;DHT22;62991;50.040;18.400;2023-07-20T11:14:56;23.40;51.50
74511;DHT22;62991;50.040;18.400;2023-07-20T11:18:11;23.40;52.50
74511;DHT22;62991;50.040;18.400;2023-07-20T11:21:13;23.50;52.80
74511;DHT22;62991;50.040;18.400;2023-07-20T11:24:13;23.60;51.90
74511;DHT22;62991;50.040;18.400;2023-07-20T11:27:15;23.70;52.00
74511;DHT22;62991;50.040;18.400;2023-07-20T11:30:16;23.90;51.50
74511;DHT22;62991;50.040;18.400;2023-07-20T11:33:17;24.00;50.70
74511;DHT22;62991;50.040;18.400;2023-07-20T11:36:17;23.90;50.10
74511;DHT22;62991;50.040;18.400;2023-07-20T11:39:19;23.90;49.60
74511;DHT22;62991;50.040;18.400;2023-07-20T11:42:22;23.90;50.30
74511;DHT22;62991;50.040;18.400;2023-07-20T11:45:22;23.90;49.20
74511;DHT22;62991;50.040;18.400;2023-07-20T11:48:23;23.80;49.40
74511;DHT22;62991;50.040;18.400;2023-07-20T11:51:24;23.80;50.30
74511;DHT22;62991;50.040;18.400;2023-07-20T11:54:25;23.90;49.50
74511;DHT22;62991;50.040;18.400;2023-07-20T11:57:26;24.10;49.80
74511;DHT22;62991;50.040;18.400;2023-07-20T12:00:27;24.00;50.30
74511;DHT22;62991;50.040;18.400;2023-07-20T12:03:28;23.90;49.00
74511;DHT22;62991;50.040;18.400;2023-07-20T12:06:29;23.80;47.70
74511;DHT22;62991;50.040;18.400;2023-07-20T12:09:29;23.90;47.40
74511;DHT22;62991;50.040;18.400;2023-07-20T12:12:37;23.90;47.70
74511;DHT22;62991;50.040;18.400;2023-07-20T12:15:38;23.80;46.80
74511;DHT22;62991;50.040;18.400;2023-07-20T12:18:39;23.80;47.70
74511;DHT22;62991;50.040;18.400;2023-07-20T12:21:41;23.90;47.60
74511;DHT22;62991;50.040;18.400;2023-07-20T12:24:42;24.10;47.80
74511;DHT22;62991;50.040;18.400;2023-07-20T12:27:44;24.30;47.80
74511;DHT22;62991;50.040;18.400;2023-07-20T12:30:46;24.50;47.10
74511;DHT22;62991;50.040;18.400;2023-07-20T12:33:47;24.70;46.50
74511;DHT22;62991;50.040;18.400;2023-07-20T12:36:48;24.60;46.00
74511;DHT22;62991;50.040;18.400;2023-07-20T12:39:48;24.70;46.90
74511;DHT22;62991;50.040;18.400;2023-07-20T12:42:49;24.70;47.20
74511;DHT22;62991;50.040;18.400;2023-07-20T12:45:50;24.90;46.30
74511;DHT22;62991;50.040;18.400;2023-07-20T12:48:50;25.00;46.60
74511;DHT22;62991;50.040;18.400;2023-07-20T12:51:51;25.00;45.20
74511;DHT22;62991;50.040;18.400;2023-07-20T12:54:52;25.00;45.40
74511;DHT22;62991;50.040;18.400;2023-07-20T12:57:52;25.00;45.40
74511;DHT22;62991;50.040;18.400;2023-07-20T13:00:53;25.20;46.00
74511;DHT22;62991;50.040;18.400;2023-07-20T13:03:54;25.20;45.60
74511;DHT22;62991;50.040;18.400;2023-07-20T13:06:55;25.10;45.20
74511;DHT22;62991;50.040;18.400;2023-07-20T13:09:59;24.80;45.40
74511;DHT22;62991;50.040;18.400;2023-07-20T13:13:00;24.70;46.30
74511;DHT22;62991;50.040;18.400;2023-07-20T13:16:01;24.50;46.50
74511;DHT22;62991;50.040;18.400;2023-07-20T13:19:02;24.40;46.00
74511;DHT22;62991;50.040;18.400;2023-07-20T13:22:03;24.40;45.20
74511;DHT22;62991;50.040;18.400;2023-07-20T13:25:04;24.30;46.20
74511;DHT22;62991;50.040;18.400;2023-07-20T13:28:07;24.20;46.80
74511;DHT22;62991;50.040;18.400;2023-07-20T13:31:08;24.20;45.90
74511;DHT22;62991;50.040;18.400;2023-07-20T13:34:11;24.10;46.40
74511;DHT22;62991;50.040;18.400;2023-07-20T13:37:12;24.10;47.70
74511;DHT22;62991;50.040;18.400;2023-07-20T13:40:14;24.10;48.90
74511;DHT22;62991;50.040;18.400;2023-07-20T13:43:17;24.10;50.20
74511;DHT22;62991;50.040;18.400;2023-07-20T13:46:18;24.10;51.20
74511;DHT22;62991;50.040;18.400;2023-07-20T13:49:18;23.20;56.60
74511;DHT22;62991;50.040;18.400;2023-07-20T13:52:19;22.20;60.10
74511;DHT22;62991;50.040;18.400;2023-07-20T13:55:20;20.90;65.10
74511;DHT22;62991;50.040;18.400;2023-07-20T13:58:20;20.50;64.50
74511;DHT22;62991;50.040;18.400;2023-07-20T14:01:21;20.60;63.10
74511;DHT22;62991;50.040;18.400;2023-07-20T14:04:23;20.60;62.40
74511;DHT22;62991;50.040;18.400;2023-07-20T14:07:24;20.70;62.20
74511;DHT22;62991;50.040;18.400;2023-07-20T14:10:25;21.00;62.40
74511;DHT22;62991;50.040;18.400;2023-07-20T14:13:25;21.40;59.80
74511;DHT22;62991;50.040;18.400;2023-07-20T14:16:26;21.70;61.90
74511;DHT22;62991;50.040;18.400;2023-07-20T14:19:27;21.70;62.40
74511;DHT22;62991;50.040;18.400;2023-07-20T14:22:27;21.90;62.30
74511;DHT22;62991;50.040;18.400;2023-07-20T14:25:28;22.10;61.60
74511;DHT22;62991;50.040;18.400;2023-07-20T14:28:29;22.40;61.00
74511;DHT22;62991;50.040;18.400;2023-07-20T14:31:29;22.30;60.40
74511;DHT22;62991;50.040;18.400;2023-07-20T14:34:30;23.20;61.00
74511;DHT22;62991;50.040;18.400;2023-07-20T14:37:31;23.30;57.10
74511;DHT22;62991;50.040;18.400;2023-07-20T14:40:31;23.00;57.30
74511;DHT22;62991;50.040;18.400;2023-07-20T14:43:33;23.10;57.80
74511;DHT22;62991;50.040;18.400;2023-07-20T14:46:33;23.10;58.80
74511;DHT22;62991;50.040;18.400;2023-07-20T14:49:34;23.30;56.70
74511;DHT22;62991;50.040;18.400;2023-07-20T14:52:35;23.30;57.90
74511;DHT22;62991;50.040;18.400;2023-07-20T14:55:35;23.00;56.50
74511;DHT22;62991;50.040;18.400;2023-07-20T14:58:36;23.00;56.30
74511;DHT22;62991;50.040;18.400;2023-07-20T15:01:37;23.10;57.90
74511;DHT22;62991;50.040;18.400;2023-07-20T15:04:46;23.10;56.60
74511;DHT22;62991;50.040;18.400;2023-07-20T15:07:47;23.30;56.80
74511;DHT22;62991;50.040;18.400;2023-07-20T15:10:48;23.50;58.00
74511;DHT22;62991;50.040;18.400;2023-07-20T15:13:49;23.50;53.00
74511;DHT22;62991;50.040;18.400;2023-07-20T15:16:49;23.30;51.60
74511;DHT22;62991;50.040;18.400;2023-07-20T15:19:50;23.40;51.40
74511;DHT22;62991;50.040;18.400;2023-07-20T15:22:51;23.40;50.00
74511;DHT22;62991;50.040;18.400;2023-07-20T15:25:51;23.40;49.70
74511;DHT22;62991;50.040;18.400;2023-07-20T15:28:52;23.30;46.80
74511;DHT22;62991;50.040;18.400;2023-07-20T15:31:53;23.40;47.60
74511;DHT22;62991;50.040;18.400;2023-07-20T15:34:54;23.50;48.50
74511;DHT22;62991;50.040;18.400;2023-07-20T15:37:54;23.80;50.20
74511;DHT22;62991;50.040;18.400;2023-07-20T15:40:55;23.80;49.30
74511;DHT22;62991;50.040;18.400;2023-07-20T15:43:57;23.60;48.10
74511;DHT22;62991;50.040;18.400;2023-07-20T15:46:58;23.40;47.30
74511;DHT22;62991;50.040;18.400;2023-07-20T15:49:59;23.30;48.50
74511;DHT22;62991;50.040;18.400;2023-07-20T15:52:59;23.30;48.30
74511;DHT22;62991;50.040;18.400;2023-07-20T15:56:00;23.30;50.00
74511;DHT22;62991;50.040;18.400;2023-07-20T15:59:01;23.00;49.90
74511;DHT22;62991;50.040;18.400;2023-07-20T16:02:02;22.90;51.50
74511;DHT22;62991;50.040;18.400;2023-07-20T16:05:05;23.10;51.60
74511;DHT22;62991;50.040;18.400;2023-07-20T16:08:06;23.20;50.90
74511;DHT22;62991;50.040;18.400;2023-07-20T16:11:07;23.20;49.90
74511;DHT22;62991;50.040;18.400;2023-07-20T16:14:07;23.40;51.10
74511;DHT22;62991;50.040;18.400;2023-07-20T16:17:08;23.50;49.70
74511;DHT22;62991;50.040;18.400;2023-07-20T16:20:09;23.40;49.80
74511;DHT22;62991;50.040;18.400;2023-07-20T16:23:10;23.40;49.30
74511;DHT22;62991;50.040;18.400;2023-07-20T16:26:11;23.40;49.30
74511;DHT22;62991;50.040;18.400;2023-07-20T16:29:13;23.40;49.70
74511;DHT22;62991;50.040;18.400;2023-07-20T16:32:14;23.30;50.80
74511;DHT22;62991;50.040;18.400;2023-07-20T16:35:15;23.30;50.00
74511;DHT22;62991;50.040;18.400;2023-07-20T16:38:15;23.30;50.10
74511;DHT22;62991;50.040;18.400;2023-07-20T16:41:16;23.30;50.00
74511;DHT22;62991;50.040;18.400;2023-07-20T16:44:17;23.40;49.80
74511;DHT22;62991;50.040;18.400;2023-07-20T16:47:18;23.40;49.50
74511;DHT22;62991;50.040;18.400;2023-07-20T16:50:21;23.40;48.60
74511;DHT22;62991;50.040;18.400;2023-07-20T16:53:23;23.50;49.00
74511;DHT22;62991;50.040;18.400;2023-07-20T16:56:23;23.40;48.50
74511;DHT22;62991;50.040;18.400;2023-07-20T16:59:24;23.20;48.80
74511;DHT22;62991;50.040;18.400;2023-07-20T17:02:25;23.30;49.10
74511;DHT22;62991;50.040;18.400;2023-07-20T17:05:25;23.20;49.70
74511;DHT22;62991;50.040;18.400;2023-07-20T17:08:26;23.20;50.10
74511;DHT22;62991;50.040;18.400;2023-07-20T17:11:27;23.20;50.20
74511;DHT22;62991;50.040;18.400;2023-07-20T17:14:28;23.00;50.40
74511;DHT22;62991;50.040;18.400;2023-07-20T17:17:28;22.90;50.50
74511;DHT22;62991;50.040;18.400;2023-07-20T17:20:29;23.00;49.90
74511;DHT22;62991;50.040;18.400;2023-07-20T17:23:30;23.20;49.90
74511;DHT22;62991;50.040;18.400;2023-07-20T17:26:32;23.10;49.80
74511;DHT22;62991;50.040;18.400;2023-07-20T17:29:33;23.10;49.50
74511;DHT22;62991;50.040;18.400;2023-07-20T17:32:34;22.90;50.20
74511;DHT22;62991;50.040;18.400;2023-07-20T17:35:35;22.90;50.40
74511;DHT22;62991;50.040;18.400;2023-07-20T17:38:36;23.10;50.80
74511;DHT22;62991;50.040;18.400;2023-07-20T17:41:47;23.10;51.80
74511;DHT22;62991;50.040;18.400;2023-07-20T17:44:50;23.10;50.80
74511;DHT22;62991;50.040;18.400;2023-07-20T17:47:50;23.10;51.40
74511;DHT22;62991;50.040;18.400;2023-07-20T17:50:51;23.00;52.00
74511;DHT22;62991;50.040;18.400;2023-07-20T17:53:54;23.10;51.50
74511;DHT22;62991;50.040;18.400;2023-07-20T17:56:54;23.00;51.40
74511;DHT22;62991;50.040;18.400;2023-07-20T17:59:56;22.80;52.20
74511;DHT22;62991;50.040;18.400;2023-07-20T18:02:58;22.80;52.30
74511;DHT22;62991;50.040;18.400;2023-07-20T18:06:06;22.60;53.10
74511;DHT22;62991;50.040;18.400;2023-07-20T18:09:09;22.50;53.50
74511;DHT22;62991;50.040;18.400;2023-07-20T18:12:10;22.40;53.80
74511;DHT22;62991;50.040;18.400;2023-07-20T18:15:11;22.30;54.40
74511;DHT22;62991;50.040;18.400;2023-07-20T18:18:11;22.20;54.70
74511;DHT22;62991;50.040;18.400;2023-07-20T18:21:12;22.10;55.00
74511;DHT22;62991;50.040;18.400;2023-07-20T18:24:13;22.00;55.00
74511;DHT22;62991;50.040;18.400;2023-07-20T18:27:14;22.10;55.30
74511;DHT22;62991;50.040;18.400;2023-07-20T18:30:15;22.10;55.10
74511;DHT22;62991;50.040;18.400;2023-07-20T18:33:19;22.10;56.10
74511;DHT22;62991;50.040;18.400;2023-07-20T18:36:20;22.10;55.30
74511;DHT22;62991;50.040;18.400;2023-07-20T18:39:21;22.10;55.50
74511;DHT22;62991;50.040;18.400;2023-07-20T18:42:22;22.10;55.90
74511;DHT22;62991;50.040;18.400;2023-07-20T18:45:22;22.10;55.80
74511;DHT22;62991;50.040;18.400;2023-07-20T18:48:23;22.10;55.20
74511;DHT22;62991;50.040;18.400;2023-07-20T18:51:24;22.10;56.00
74511;DHT22;62991;50.040;18.400;2023-07-20T18:54:24;22.20;55.50
74511;DHT22;62991;50.040;18.400;2023-07-20T18:57:25;22.30;54.40
74511;DHT22;62991;50.040;18.400;2023-07-20T19:00:26;22.10;54.90
74511;DHT22;62991;50.040;18.400;2023-07-20T19:03:26;22.00;55.80